Terminal Aerodrome Forecast
Issued by NWS

Home | Current Version | Previous Version | Text Only | Print | Product List | Glossary Off
Versions: 1 2 3 4 5 6 7 8 9 10 11 12 13 14 15 16 17 18 19 20 21 22 23 24 25 26 27 28 29

009
FTUS43 KBIS 241839 AAA
TAFDIK
TAF AMD
KDIK 241839Z 2419/2518 17013KT P6SM FEW012 OVC030
     FM242000 20015G22KT P6SM BKN015
     FM242100 22016G23KT P6SM BKN025
     FM250000 31016G23KT 5SM -SHRA BR OVC008
     FM250200 30022G27KT 2SM -SHRA BR OVC003
     FM251000 31022G31KT P6SM BKN035=

USA.gov is the U.S. government's official web portal to all federal, state and local government web resources and services.